< < Back
Terminal Aerodrome Forecast


Current Version              Previous Versions:   1  2  3  4  5  6  7  8  9  

Terminal Aerodrome Forecast

011
FTUS42 KFFC 022139 AAA
TAFPDK
TAF AMD
KPDK 022139Z 0222/0318 22010KT P6SM FEW045 BKN100
      TEMPO 0300/0303 VRB15G25KT 4SM TSRA BR BKN025CB
     FM030300 23006KT P6SM VCSH BKN040
     FM030600 25004KT 5SM BR SCT009 BKN015
     FM031200 24005KT P6SM BKN007 PROB30 0316/0318 -SHRA SCT007
      BKN015=

Latest METAR

513
SAUS70 KWBC 030800 RRD
MTRPDK
METAR KPDK 030753Z AUTO 25003KT 10SM SCT110 18/18 A2989 RMK AO2 SLP106
T01780178


USA.gov is the U.S. government's official web portal to all federal, state and local government web resources and services.